createdAt,value
2022-08-09T00:01:22.959Z,19.08
2022-08-09T00:04:05.412Z,19.07
2022-08-09T00:06:38.934Z,18.95
2022-08-09T00:09:13.316Z,19.02
2022-08-09T00:12:03.148Z,18.93
2022-08-09T00:14:37.793Z,18.85
2022-08-09T00:17:06.838Z,18.82
2022-08-09T00:19:35.103Z,18.60
2022-08-09T00:22:05.870Z,18.62
2022-08-09T00:24:33.874Z,18.73
2022-08-09T00:27:02.266Z,18.58
2022-08-09T00:30:16.226Z,18.62
2022-08-09T00:32:26.585Z,18.59
2022-08-09T00:34:56.519Z,18.41
2022-08-09T00:37:30.310Z,18.30
2022-08-09T00:40:13.461Z,18.38
2022-08-09T00:44:18.734Z,18.36
2022-08-09T00:45:35.814Z,18.33
2022-08-09T00:48:05.749Z,18.32
2022-08-09T00:50:34.275Z,18.24
2022-08-09T00:53:11.748Z,18.16
2022-08-09T00:56:04.808Z,18.09
2022-08-09T00:58:31.626Z,18.08
2022-08-09T01:01:03.352Z,17.94
2022-08-09T01:03:58.003Z,17.89
2022-08-09T01:06:54.202Z,18.03
2022-08-09T01:09:44.719Z,18.00
2022-08-09T01:12:42.106Z,17.88
2022-08-09T01:15:25.029Z,17.81
2022-08-09T01:17:59.483Z,17.93
2022-08-09T01:21:21.635Z,17.86
2022-08-09T01:24:22.743Z,17.76
2022-08-09T01:27:10.668Z,17.83
2022-08-09T01:29:54.992Z,17.75
2022-08-09T01:32:34.691Z,17.77
2022-08-09T01:35:38.641Z,17.87
2022-08-09T01:38:16.601Z,17.84
2022-08-09T01:41:05.428Z,17.80
2022-08-09T01:43:52.405Z,17.80
2022-08-09T01:46:31.653Z,17.88
2022-08-09T01:49:10.177Z,17.86
2022-08-09T01:51:44.657Z,17.91
2022-08-09T01:54:35.698Z,17.85
2022-08-09T01:57:14.859Z,17.79
2022-08-09T01:59:51.624Z,17.76
2022-08-09T02:02:31.596Z,17.85
2022-08-09T02:05:15.168Z,17.80
2022-08-09T02:08:35.060Z,17.74
2022-08-09T02:10:50.914Z,17.71
2022-08-09T02:13:26.047Z,17.68
2022-08-09T02:16:07.910Z,17.71
2022-08-09T02:18:38.460Z,17.50
2022-08-09T02:21:22.153Z,17.58
2022-08-09T02:23:58.465Z,17.50
2022-08-09T02:26:39.256Z,17.58
2022-08-09T02:29:21.414Z,17.58
2022-08-09T02:31:52.995Z,17.66
2022-08-09T02:34:40.572Z,17.52
2022-08-09T02:37:17.782Z,17.35
2022-08-09T02:39:55.059Z,17.47
2022-08-09T02:42:37.726Z,17.34
2022-08-09T02:45:28.829Z,17.35
2022-08-09T02:48:04.037Z,17.27
2022-08-09T02:50:56.324Z,17.22
2022-08-09T02:53:34.343Z,17.29
2022-08-09T02:56:04.736Z,17.25
2022-08-09T02:58:38.095Z,17.24
2022-08-09T03:01:21.650Z,17.17
2022-08-09T03:04:16.947Z,17.08
2022-08-09T03:06:49.173Z,17.14
2022-08-09T03:09:20.292Z,17.11
2022-08-09T03:12:06.598Z,17.05
2022-08-09T03:14:47.601Z,17.13
2022-08-09T03:17:26.381Z,17.12
2022-08-09T03:20:02.768Z,17.05
2022-08-09T03:22:42.021Z,17.04
2022-08-09T03:25:26.731Z,16.99
2022-08-09T03:28:05.411Z,16.93
2022-08-09T03:30:39.332Z,16.81
2022-08-09T03:33:17.274Z,16.89
2022-08-09T03:36:12.453Z,16.82
2022-08-09T03:38:43.471Z,16.91
2022-08-09T03:41:16.044Z,16.91
2022-08-09T03:44:03.170Z,16.87
2022-08-09T03:46:36.778Z,16.83
2022-08-09T03:49:08.880Z,16.81
2022-08-09T03:51:55.661Z,16.66
2022-08-09T03:54:34.587Z,16.73
2022-08-09T03:57:18.712Z,16.72
2022-08-09T03:59:54.463Z,16.66
2022-08-09T04:02:27.621Z,16.59
2022-08-09T04:05:05.693Z,16.62
2022-08-09T04:07:53.420Z,16.66
2022-08-09T04:10:29.354Z,16.63
2022-08-09T04:13:01.128Z,16.49
2022-08-09T04:16:17.327Z,16.67
2022-08-09T04:18:19.300Z,16.65
2022-08-09T04:20:49.087Z,16.65
2022-08-09T04:23:17.165Z,16.64
2022-08-09T04:25:49.898Z,16.64
2022-08-09T04:28:33.140Z,16.63
2022-08-09T04:31:09.343Z,16.56
2022-08-09T04:33:47.416Z,16.57
2022-08-09T04:37:42.188Z,16.57
2022-08-09T04:40:19.395Z,16.44
2022-08-09T04:43:00.063Z,16.47
2022-08-09T04:45:30.320Z,16.47
2022-08-09T04:48:02.170Z,16.44
2022-08-09T04:50:33.625Z,16.46
2022-08-09T04:53:13.061Z,16.61
2022-08-09T04:55:57.637Z,16.63
2022-08-09T04:58:31.598Z,16.69
2022-08-09T05:01:01.379Z,16.80
2022-08-09T05:03:40.142Z,16.82
2022-08-09T05:06:21.962Z,16.81
2022-08-09T05:09:00.338Z,16.83
2022-08-09T05:12:11.087Z,16.83
2022-08-09T05:14:41.014Z,16.91
2022-08-09T05:18:38.363Z,16.95
2022-08-09T05:20:09.442Z,16.99
2022-08-09T05:23:55.396Z,16.96
2022-08-09T05:25:56.840Z,17.08
2022-08-09T05:28:23.969Z,17.12
2022-08-09T05:30:51.576Z,17.08
2022-08-09T05:33:19.650Z,17.00
2022-08-09T05:35:54.012Z,17.09
2022-08-09T05:38:24.427Z,17.25
2022-08-09T05:40:55.121Z,17.12
2022-08-09T05:43:22.207Z,17.38
2022-08-09T05:45:57.152Z,17.36
2022-08-09T05:48:27.858Z,17.56
2022-08-09T05:51:16.775Z,17.58
2022-08-09T05:53:56.873Z,17.44
2022-08-09T05:56:26.166Z,17.71
2022-08-09T05:58:58.648Z,17.72
2022-08-09T06:01:34.239Z,17.77
2022-08-09T06:04:09.706Z,17.88
2022-08-09T06:06:43.781Z,17.91
2022-08-09T06:09:40.708Z,18.03
2022-08-09T06:12:01.455Z,18.11
2022-08-09T06:14:28.603Z,18.16
2022-08-09T06:16:57.270Z,18.19
2022-08-09T06:19:25.004Z,18.17
2022-08-09T06:21:58.789Z,18.33
2022-08-09T06:24:27.383Z,18.39
2022-08-09T06:27:01.538Z,18.50
2022-08-09T06:29:29.934Z,18.48
2022-08-09T06:32:18.386Z,18.62
2022-08-09T06:34:44.079Z,18.58
2022-08-09T06:37:13.431Z,18.70
2022-08-09T06:39:58.219Z,18.62
2022-08-09T06:42:30.514Z,18.95
2022-08-09T06:44:58.945Z,18.87
2022-08-09T06:47:30.010Z,19.08
2022-08-09T06:50:13.479Z,19.10
2022-08-09T06:52:48.587Z,19.12
2022-08-09T06:55:23.308Z,19.34
2022-08-09T06:58:03.429Z,19.45
2022-08-09T07:00:52.717Z,19.47
2022-08-09T07:03:28.417Z,19.66
2022-08-09T07:06:04.042Z,19.74
2022-08-09T07:08:33.698Z,19.99
2022-08-09T07:11:03.529Z,20.13
2022-08-09T07:13:31.387Z,20.11
2022-08-09T07:16:41.008Z,20.38
2022-08-09T07:18:59.845Z,20.56
2022-08-09T07:21:26.886Z,20.65
2022-08-09T07:24:01.139Z,20.71
2022-08-09T07:26:29.241Z,20.93
2022-08-09T07:29:09.391Z,20.98
2022-08-09T07:31:46.027Z,21.09
2022-08-09T07:34:20.543Z,21.15
2022-08-09T07:36:49.465Z,21.32
2022-08-09T07:39:20.092Z,21.30
2022-08-09T07:41:54.004Z,21.32
2022-08-09T07:44:30.293Z,21.37
2022-08-09T07:47:04.053Z,21.40
2022-08-09T07:49:34.884Z,21.60
2022-08-09T07:52:21.927Z,21.54
2022-08-09T07:54:51.422Z,21.79
2022-08-09T07:57:18.848Z,22.04
2022-08-09T08:00:03.181Z,22.24
2022-08-09T08:02:42.577Z,22.33
2022-08-09T08:05:17.614Z,22.31
2022-08-09T08:08:43.003Z,22.34
2022-08-09T08:10:34.344Z,22.50
2022-08-09T08:13:03.672Z,22.31
2022-08-09T08:15:37.519Z,22.55
2022-08-09T08:18:05.025Z,22.71
2022-08-09T08:20:33.274Z,22.79
2022-08-09T08:23:16.769Z,23.04
2022-08-09T08:25:48.534Z,23.07
2022-08-09T08:28:25.692Z,23.30
2022-08-09T08:31:14.198Z,23.40
2022-08-09T08:33:53.316Z,23.43
2022-08-09T08:36:29.018Z,23.39
2022-08-09T08:38:59.941Z,23.30
2022-08-09T08:41:50.573Z,23.48
2022-08-09T08:44:22.963Z,23.76
2022-08-09T08:47:03.233Z,23.80
2022-08-09T08:49:46.929Z,23.77
2022-08-09T08:52:58.020Z,24.00
2022-08-09T08:55:15.302Z,24.19
2022-08-09T08:57:57.255Z,24.28
2022-08-09T09:00:34.289Z,24.22
2022-08-09T09:03:11.768Z,24.42
2022-08-09T09:05:58.859Z,24.40
2022-08-09T09:08:37.734Z,24.67
2022-08-09T09:11:07.550Z,24.86
2022-08-09T09:13:57.164Z,24.89
2022-08-09T09:16:33.571Z,25.10
2022-08-09T09:19:36.774Z,25.26
2022-08-09T09:22:11.903Z,25.26
2022-08-09T09:24:48.299Z,25.36
2022-08-09T09:28:06.663Z,25.49
2022-08-09T09:30:35.949Z,25.26
2022-08-09T09:33:15.931Z,25.30
2022-08-09T09:36:01.470Z,25.48
2022-08-09T09:38:49.666Z,25.72
2022-08-09T09:41:33.001Z,25.87
2022-08-09T09:44:11.720Z,25.70
2022-08-09T09:46:46.014Z,25.52
2022-08-09T09:49:56.395Z,25.44
2022-08-09T09:52:35.640Z,25.44
2022-08-09T09:55:23.798Z,25.33
2022-08-09T09:58:15.917Z,25.47
2022-08-09T10:00:55.457Z,25.73
2022-08-09T10:03:57.151Z,25.63
2022-08-09T10:06:32.187Z,25.45
2022-08-09T10:09:11.903Z,25.93
2022-08-09T10:12:07.670Z,26.29
2022-08-09T10:14:40.368Z,26.37
2022-08-09T10:17:40.203Z,26.30
2022-08-09T10:20:35.662Z,26.55
2022-08-09T10:23:23.993Z,26.68
2022-08-09T10:26:06.586Z,26.73
2022-08-09T10:28:41.796Z,26.87
2022-08-09T10:34:07.820Z,26.70
2022-08-09T10:36:39.874Z,26.36
2022-08-09T10:39:15.700Z,26.70
2022-08-09T10:41:43.457Z,27.04
2022-08-09T10:44:11.171Z,26.94
2022-08-09T10:47:20.320Z,27.05
2022-08-09T10:50:10.020Z,26.84
2022-08-09T10:53:10.400Z,26.79
2022-08-09T10:55:55.455Z,26.71
2022-08-09T10:58:35.005Z,26.55
2022-08-09T11:03:06.480Z,26.70
2022-08-09T11:04:28.088Z,26.69
2022-08-09T11:07:00.122Z,26.77
2022-08-09T11:09:41.427Z,26.77
2022-08-09T11:12:26.378Z,27.12
2022-08-09T11:15:04.300Z,26.77
2022-08-09T11:17:32.534Z,26.67
2022-08-09T11:20:07.999Z,26.70
2022-08-09T11:22:47.066Z,26.55
2022-08-09T11:25:47.319Z,26.75
2022-08-09T11:28:55.742Z,26.99
2022-08-09T11:31:49.141Z,27.11
2022-08-09T11:34:43.632Z,27.13
2022-08-09T11:37:27.936Z,27.01
2022-08-09T11:40:15.047Z,27.14
2022-08-09T11:42:48.879Z,27.30
2022-08-09T11:45:42.645Z,27.26
2022-08-09T11:48:26.221Z,27.19
2022-08-09T11:52:49.044Z,27.26
2022-08-09T11:54:28.437Z,27.46
2022-08-09T11:57:59.724Z,27.51
2022-08-09T12:00:32.402Z,27.43
2022-08-09T12:03:09.767Z,27.52
2022-08-09T12:05:49.887Z,27.80
2022-08-09T12:08:19.772Z,28.21
2022-08-09T12:11:00.176Z,28.38
2022-08-09T12:14:08.535Z,28.38
2022-08-09T12:16:38.152Z,28.25
2022-08-09T12:19:11.320Z,27.89
2022-08-09T12:21:50.437Z,27.96
2022-08-09T12:24:25.309Z,27.76
2022-08-09T12:29:09.807Z,27.51
2022-08-09T12:30:01.725Z,27.81
2022-08-09T12:32:44.379Z,27.95
2022-08-09T12:35:13.279Z,27.74
2022-08-09T12:37:51.694Z,27.75
2022-08-09T12:40:23.207Z,28.03
2022-08-09T12:42:52.741Z,28.00
2022-08-09T12:45:34.298Z,27.73
2022-08-09T12:48:19.819Z,28.24
2022-08-09T12:50:55.796Z,27.99
2022-08-09T12:53:41.266Z,27.94
2022-08-09T12:56:39.669Z,27.81
2022-08-09T12:59:22.078Z,27.46
2022-08-09T13:01:59.066Z,27.79
2022-08-09T13:04:36.668Z,27.90
2022-08-09T13:07:20.024Z,28.03
2022-08-09T13:10:05.718Z,27.95
2022-08-09T13:12:35.836Z,27.99
2022-08-09T13:15:09.655Z,28.20
2022-08-09T13:18:03.544Z,28.05
2022-08-09T13:21:04.527Z,28.22
2022-08-09T13:24:15.815Z,28.27
2022-08-09T13:26:49.975Z,28.44
2022-08-09T13:29:41.931Z,28.72
2022-08-09T13:32:16.179Z,28.72
2022-08-09T13:34:47.180Z,28.92
2022-08-09T13:37:50.840Z,28.87
2022-08-09T13:41:51.585Z,28.47
2022-08-09T13:42:52.909Z,28.53
2022-08-09T13:45:20.829Z,28.60
2022-08-09T13:47:52.717Z,28.83
2022-08-09T13:50:31.038Z,28.78
2022-08-09T13:52:59.233Z,28.84
2022-08-09T13:55:29.058Z,28.75
2022-08-09T13:57:58.523Z,28.32
2022-08-09T14:00:29.277Z,28.28
2022-08-09T14:03:04.678Z,28.30
2022-08-09T14:05:59.306Z,28.53
2022-08-09T14:08:30.740Z,28.46
2022-08-09T14:10:59.457Z,28.08
2022-08-09T14:14:22.002Z,28.08
2022-08-09T14:16:28.016Z,27.78
2022-08-09T14:18:57.157Z,27.83
2022-08-09T14:21:29.146Z,28.09
2022-08-09T14:23:57.634Z,28.48
2022-08-09T14:26:33.573Z,28.29
2022-08-09T14:30:04.604Z,28.58
2022-08-09T14:31:56.037Z,28.69
2022-08-09T14:34:31.644Z,28.69
2022-08-09T14:37:08.153Z,28.61
2022-08-09T14:39:46.726Z,28.23
2022-08-09T14:42:30.302Z,28.18
2022-08-09T14:46:46.714Z,28.25
2022-08-09T14:47:57.927Z,28.55
2022-08-09T14:50:37.309Z,29.10
2022-08-09T14:53:11.557Z,29.07
2022-08-09T14:55:49.824Z,29.02
2022-08-09T14:58:19.278Z,28.97
2022-08-09T15:00:48.283Z,28.71
2022-08-09T15:03:22.111Z,28.71
2022-08-09T15:05:52.383Z,28.72
2022-08-09T15:08:30.508Z,28.44
2022-08-09T15:11:00.495Z,27.86
2022-08-09T15:13:48.501Z,28.16
2022-08-09T15:16:16.458Z,28.23
2022-08-09T15:18:43.540Z,28.14
2022-08-09T15:21:55.463Z,27.99
2022-08-09T15:24:12.429Z,28.19
2022-08-09T15:26:46.079Z,27.76
2022-08-09T15:30:57.324Z,27.56
2022-08-09T15:32:02.812Z,27.46
2022-08-09T15:34:34.486Z,27.39
2022-08-09T15:37:23.798Z,27.33
2022-08-09T15:39:54.713Z,27.15
2022-08-09T15:42:22.301Z,27.24
2022-08-09T15:44:50.559Z,27.24
2022-08-09T15:47:22.519Z,27.29
2022-08-09T15:50:04.379Z,27.44
2022-08-09T15:52:37.378Z,27.55
2022-08-09T15:55:09.125Z,27.43
2022-08-09T15:57:44.288Z,27.34
2022-08-09T16:00:25.643Z,27.42
2022-08-09T16:02:56.079Z,27.52
2022-08-09T16:05:47.561Z,27.34
2022-08-09T16:08:30.067Z,27.03
2022-08-09T16:11:01.361Z,26.93
2022-08-09T16:14:03.575Z,26.88
2022-08-09T16:16:19.067Z,26.85
2022-08-09T16:18:47.745Z,26.74
2022-08-09T16:21:17.664Z,26.62
2022-08-09T16:24:02.225Z,26.74
2022-08-09T16:26:36.640Z,26.74
2022-08-09T16:29:11.368Z,26.74
2022-08-09T16:32:19.669Z,26.79
2022-08-09T16:34:55.324Z,26.72
2022-08-09T16:37:56.164Z,26.70
2022-08-09T16:40:13.872Z,26.71
2022-08-09T16:42:48.216Z,26.73
2022-08-09T16:45:19.590Z,26.70
2022-08-09T16:48:38.021Z,26.68
2022-08-09T16:50:38.236Z,26.48
2022-08-09T16:53:05.998Z,26.47
2022-08-09T16:55:58.290Z,26.56
2022-08-09T16:58:21.182Z,26.58
2022-08-09T17:00:49.048Z,26.31
2022-08-09T17:03:22.129Z,26.44
2022-08-09T17:06:07.950Z,26.14
